sensor_id;sensor_type;location;lat;lon;timestamp;pressure;altitude;pressure_sealevel;temperature;humidity
24280;BME280;12395;42.808;23.408;2023-11-21T00:00:00;94724.09;;;2.73;100.00
24280;BME280;12395;42.808;23.408;2023-11-21T00:02:26;94724.91;;;2.74;100.00
24280;BME280;12395;42.808;23.408;2023-11-21T00:04:53;94735.03;;;2.77;100.00
24280;BME280;12395;42.808;23.408;2023-11-21T00:07:19;94722.16;;;2.67;100.00
24280;BME280;12395;42.808;23.408;2023-11-21T00:09:46;94732.25;;;2.78;100.00
24280;BME280;12395;42.808;23.408;2023-11-21T00:12:12;94733.09;;;2.71;100.00
24280;BME280;12395;42.808;23.408;2023-11-21T00:14:39;94746.00;;;2.80;100.00
24280;BME280;12395;42.808;23.408;2023-11-21T00:17:05;94726.06;;;2.71;100.00
24280;BME280;12395;42.808;23.408;2023-11-21T00:19:31;94741.59;;;2.81;100.00
24280;BME280;12395;42.808;23.408;2023-11-21T00:21:56;94733.09;;;2.71;100.00
24280;BME280;12395;42.808;23.408;2023-11-21T00:24:23;94740.75;;;2.80;100.00
24280;BME280;12395;42.808;23.408;2023-11-21T00:26:50;94747.63;;;2.81;100.00
24280;BME280;12395;42.808;23.408;2023-11-21T00:29:15;94752.88;;;2.81;100.00
24280;BME280;12395;42.808;23.408;2023-11-21T00:31:43;94742.72;;;2.70;100.00
24280;BME280;12395;42.808;23.408;2023-11-21T00:34:09;94741.41;;;2.82;100.00
24280;BME280;12395;42.808;23.408;2023-11-21T00:36:34;94717.72;;;2.68;100.00
24280;BME280;12395;42.808;23.408;2023-11-21T00:39:00;94728.66;;;2.79;100.00
24280;BME280;12395;42.808;23.408;2023-11-21T00:41:25;94736.84;;;2.84;100.00
24280;BME280;12395;42.808;23.408;2023-11-21T00:43:54;94737.16;;;2.81;100.00
24280;BME280;12395;42.808;23.408;2023-11-21T00:46:20;94720.50;;;2.66;100.00
24280;BME280;12395;42.808;23.408;2023-11-21T00:48:45;94721.31;;;2.67;100.00
24280;BME280;12395;42.808;23.408;2023-11-21T00:51:11;94723.13;;;2.66;100.00
24280;BME280;12395;42.808;23.408;2023-11-21T00:53:36;94736.19;;;2.74;100.00
24280;BME280;12395;42.808;23.408;2023-11-21T00:56:02;94720.31;;;2.68;100.00
24280;BME280;12395;42.808;23.408;2023-11-21T00:58:27;94706.13;;;2.70;100.00
24280;BME280;12395;42.808;23.408;2023-11-21T01:00:53;94698.25;;;2.70;100.00
24280;BME280;12395;42.808;23.408;2023-11-21T01:03:18;94697.78;;;2.67;100.00
24280;BME280;12395;42.808;23.408;2023-11-21T01:05:44;94706.09;;;2.78;100.00
24280;BME280;12395;42.808;23.408;2023-11-21T01:08:11;94699.56;;;2.74;100.00
24280;BME280;12395;42.808;23.408;2023-11-21T01:10:36;94712.97;;;2.79;100.00
24280;BME280;12395;42.808;23.408;2023-11-21T01:13:02;94726.88;;;2.80;100.00
24280;BME280;12395;42.808;23.408;2023-11-21T01:15:31;94722.47;;;2.72;100.00
24280;BME280;12395;42.808;23.408;2023-11-21T01:17:56;94715.94;;;2.68;100.00
24280;BME280;12395;42.808;23.408;2023-11-21T01:20:22;94716.25;;;2.65;100.00
24280;BME280;12395;42.808;23.408;2023-11-21T01:22:47;94728.69;;;2.71;100.00
24280;BME280;12395;42.808;23.408;2023-11-21T01:25:14;94724.75;;;2.75;100.00
24280;BME280;12395;42.808;23.408;2023-11-21T01:27:41;94717.22;;;2.72;100.00
24280;BME280;12395;42.808;23.408;2023-11-21T01:30:07;94723.94;;;2.67;100.00
24280;BME280;12395;42.808;23.408;2023-11-21T01:32:33;94711.34;;;2.62;100.00
24280;BME280;12395;42.808;23.408;2023-11-21T01:34:59;94729.66;;;2.62;100.00
24280;BME280;12395;42.808;23.408;2023-11-21T01:37:25;94727.34;;;2.59;100.00
24280;BME280;12395;42.808;23.408;2023-11-21T01:39:55;94730.81;;;2.52;100.00
24280;BME280;12395;42.808;23.408;2023-11-21T01:42:21;94722.97;;;2.52;100.00
24280;BME280;12395;42.808;23.408;2023-11-21T01:44:46;94719.34;;;2.53;100.00
24280;BME280;12395;42.808;23.408;2023-11-21T01:47:12;94719.22;;;2.54;100.00
24280;BME280;12395;42.808;23.408;2023-11-21T01:49:38;94705.47;;;2.52;100.00
24280;BME280;12395;42.808;23.408;2023-11-21T01:52:04;94708.09;;;2.52;100.00
24280;BME280;12395;42.808;23.408;2023-11-21T01:54:30;94704.16;;;2.48;100.00
24280;BME280;12395;42.808;23.408;2023-11-21T01:56:58;94704.16;;;2.48;100.00
24280;BME280;12395;42.808;23.408;2023-11-21T01:59:34;94704.63;;;2.35;100.00
24280;BME280;12395;42.808;23.408;2023-11-21T02:02:00;94708.91;;;2.28;100.00
24280;BME280;12395;42.808;23.408;2023-11-21T02:04:26;94693.53;;;2.25;100.00
24280;BME280;12395;42.808;23.408;2023-11-21T02:06:52;94708.72;;;2.38;100.00
24280;BME280;12395;42.808;23.408;2023-11-21T02:09:24;94701.88;;;2.37;100.00
24280;BME280;12395;42.808;23.408;2023-11-21T02:11:49;94694.19;;;2.35;100.00
24280;BME280;12395;42.808;23.408;2023-11-21T02:14:15;94680.78;;;2.22;100.00
24280;BME280;12395;42.808;23.408;2023-11-21T02:16:40;94692.69;;;2.25;100.00
24280;BME280;12395;42.808;23.408;2023-11-21T02:19:10;94698.28;;;2.22;100.00
24280;BME280;12395;42.808;23.408;2023-11-21T02:21:36;94680.78;;;2.14;100.00
24280;BME280;12395;42.808;23.408;2023-11-21T02:24:05;94702.03;;;2.27;100.00
24280;BME280;12395;42.808;23.408;2023-11-21T02:26:31;94686.00;;;2.14;100.00
24280;BME280;12395;42.808;23.408;2023-11-21T02:28:56;94689.13;;;2.18;100.00
24280;BME280;12395;42.808;23.408;2023-11-21T02:31:23;94688.47;;;2.16;100.00
24280;BME280;12395;42.808;23.408;2023-11-21T02:33:48;94701.53;;;2.16;100.00
24280;BME280;12395;42.808;23.408;2023-11-21T02:36:14;94698.22;;;1.98;100.00
24280;BME280;12395;42.808;23.408;2023-11-21T02:38:39;94702.50;;;2.07;100.00
24280;BME280;12395;42.808;23.408;2023-11-21T02:41:05;94701.50;;;2.08;100.00
24280;BME280;12395;42.808;23.408;2023-11-21T02:43:30;94694.13;;;2.03;100.00
24280;BME280;12395;42.808;23.408;2023-11-21T02:45:55;94699.88;;;2.15;100.00
24280;BME280;12395;42.808;23.408;2023-11-21T02:48:21;94703.47;;;2.14;100.00
24280;BME280;12395;42.808;23.408;2023-11-21T02:50:49;94701.00;;;2.04;100.00
24280;BME280;12395;42.808;23.408;2023-11-21T02:53:14;94706.59;;;2.09;100.00
24280;BME280;12395;42.808;23.408;2023-11-21T02:55:40;94703.16;;;2.09;100.00
24280;BME280;12395;42.808;23.408;2023-11-21T02:58:05;94714.91;;;2.13;100.00
24280;BME280;12395;42.808;23.408;2023-11-21T03:00:31;94713.25;;;2.12;100.00
24280;BME280;12395;42.808;23.408;2023-11-21T03:02:56;94719.81;;;2.16;100.00
24280;BME280;12395;42.808;23.408;2023-11-21T03:05:22;94710.31;;;2.07;100.00
24280;BME280;12395;42.808;23.408;2023-11-21T03:07:47;94709.19;;;2.09;100.00
24280;BME280;12395;42.808;23.408;2023-11-21T03:10:13;94713.59;;;2.09;100.00
24280;BME280;12395;42.808;23.408;2023-11-21T03:12:39;94711.28;;;2.06;100.00
24280;BME280;12395;42.808;23.408;2023-11-21T03:15:06;94734.66;;;2.07;100.00
24280;BME280;12395;42.808;23.408;2023-11-21T03:17:32;94722.56;;;1.98;100.00
24280;BME280;12395;42.808;23.408;2023-11-21T03:19:59;94718.94;;;1.99;100.00
24280;BME280;12395;42.808;23.408;2023-11-21T03:22:25;94710.16;;;2.00;100.00
24280;BME280;12395;42.808;23.408;2023-11-21T03:24:51;94705.88;;;1.99;100.00
24280;BME280;12395;42.808;23.408;2023-11-21T03:27:18;94695.59;;;1.98;100.00
24280;BME280;12395;42.808;23.408;2023-11-21T03:29:43;94701.19;;;2.11;100.00
24280;BME280;12395;42.808;23.408;2023-11-21T03:32:10;94694.00;;;2.21;100.00
24280;BME280;12395;42.808;23.408;2023-11-21T03:34:35;94689.59;;;2.13;100.00
24280;BME280;12395;42.808;23.408;2023-11-21T03:37:00;94699.88;;;2.23;100.00
24280;BME280;12395;42.808;23.408;2023-11-21T03:39:26;94691.56;;;2.19;100.00
24280;BME280;12395;42.808;23.408;2023-11-21T03:41:51;94699.88;;;2.23;100.00
24280;BME280;12395;42.808;23.408;2023-11-21T03:44:17;94701.53;;;2.24;100.00
24280;BME280;12395;42.808;23.408;2023-11-21T03:46:43;94684.19;;;2.15;100.00
24280;BME280;12395;42.808;23.408;2023-11-21T03:49:09;94695.00;;;2.20;100.00
24280;BME280;12395;42.808;23.408;2023-11-21T03:51:35;94708.22;;;2.18;100.00
24280;BME280;12395;42.808;23.408;2023-11-21T03:54:00;94686.47;;;2.10;100.00
24280;BME280;12395;42.808;23.408;2023-11-21T03:56:25;94684.03;;;2.16;100.00
24280;BME280;12395;42.808;23.408;2023-11-21T03:58:51;94693.34;;;2.11;100.00
24280;BME280;12395;42.808;23.408;2023-11-21T04:01:21;94692.69;;;2.09;100.00
24280;BME280;12395;42.808;23.408;2023-11-21T04:03:47;94677.03;;;2.09;100.00
24280;BME280;12395;42.808;23.408;2023-11-21T04:06:12;94672.28;;;2.12;100.00
24280;BME280;12395;42.808;23.408;2023-11-21T04:08:38;94679.28;;;2.12;100.00
24280;BME280;12395;42.808;23.408;2023-11-21T04:11:03;94680.63;;;2.16;100.00
24280;BME280;12395;42.808;23.408;2023-11-21T04:13:29;94686.00;;;2.22;100.00
24280;BME280;12395;42.808;23.408;2023-11-21T04:15:55;94684.69;;;2.18;100.00
24280;BME280;12395;42.808;23.408;2023-11-21T04:18:21;94688.94;;;2.11;100.00
24280;BME280;12395;42.808;23.408;2023-11-21T04:20:48;94684.56;;;2.20;100.00
24280;BME280;12395;42.808;23.408;2023-11-21T04:23:14;94678.00;;;2.16;100.00
24280;BME280;12395;42.808;23.408;2023-11-21T04:25:40;94674.41;;;2.09;100.00
24280;BME280;12395;42.808;23.408;2023-11-21T04:28:06;94668.53;;;2.07;100.00
24280;BME280;12395;42.808;23.408;2023-11-21T04:30:31;94664.78;;;2.09;100.00
24280;BME280;12395;42.808;23.408;2023-11-21T04:32:58;94667.56;;;2.16;100.00
24280;BME280;12395;42.808;23.408;2023-11-21T04:35:23;94665.56;;;2.10;100.00
24280;BME280;12395;42.808;23.408;2023-11-21T04:37:48;94678.31;;;2.13;100.00
24280;BME280;12395;42.808;23.408;2023-11-21T04:40:16;94683.06;;;2.09;100.00
24280;BME280;12395;42.808;23.408;2023-11-21T04:42:41;94670.78;;;2.10;100.00
24280;BME280;12395;42.808;23.408;2023-11-21T04:45:08;94672.44;;;2.11;100.00
24280;BME280;12395;42.808;23.408;2023-11-21T04:47:34;94672.09;;;2.06;100.00
24280;BME280;12395;42.808;23.408;2023-11-21T04:50:00;94670.78;;;2.10;100.00
24280;BME280;12395;42.808;23.408;2023-11-21T04:52:25;94687.13;;;2.12;100.00
24280;BME280;12395;42.808;23.408;2023-11-21T04:54:51;94694.19;;;2.11;100.00
24280;BME280;12395;42.808;23.408;2023-11-21T04:57:16;94694.66;;;2.07;100.00
24280;BME280;12395;42.808;23.408;2023-11-21T04:59:44;94694.31;;;1.94;100.00
24280;BME280;12395;42.808;23.408;2023-11-21T05:02:09;94694.31;;;1.94;100.00
24280;BME280;12395;42.808;23.408;2023-11-21T05:04:34;94689.25;;;2.00;100.00
24280;BME280;12395;42.808;23.408;2023-11-21T05:07:00;94692.66;;;1.93;100.00
24280;BME280;12395;42.808;23.408;2023-11-21T05:09:26;94704.41;;;1.97;100.00
24280;BME280;12395;42.808;23.408;2023-11-21T05:11:53;94693.28;;;1.87;100.00
24280;BME280;12395;42.808;23.408;2023-11-21T05:14:19;94693.94;;;1.89;100.00
24280;BME280;12395;42.808;23.408;2023-11-21T05:16:45;94693.00;;;1.90;100.00
24280;BME280;12395;42.808;23.408;2023-11-21T05:19:11;94698.53;;;1.95;100.00
24280;BME280;12395;42.808;23.408;2023-11-21T05:21:38;94691.34;;;1.89;100.00
24280;BME280;12395;42.808;23.408;2023-11-21T05:24:04;94694.94;;;1.96;100.00
24280;BME280;12395;42.808;23.408;2023-11-21T05:26:30;94669.63;;;1.88;100.00
24280;BME280;12395;42.808;23.408;2023-11-21T05:28:56;94688.44;;;2.00;100.00
24280;BME280;12395;42.808;23.408;2023-11-21T05:31:21;94693.53;;;2.09;100.00
24280;BME280;12395;42.808;23.408;2023-11-21T05:33:47;94695.78;;;2.04;100.00
24280;BME280;12395;42.808;23.408;2023-11-21T05:36:12;94693.53;;;2.09;100.00
24280;BME280;12395;42.808;23.408;2023-11-21T05:38:38;94678.16;;;2.14;100.00
24280;BME280;12395;42.808;23.408;2023-11-21T05:41:03;94691.91;;;2.32;100.00
24280;BME280;12395;42.808;23.408;2023-11-21T05:43:30;94691.59;;;2.44;100.00
24280;BME280;12395;42.808;23.408;2023-11-21T05:45:56;94683.22;;;2.40;100.00
24280;BME280;12395;42.808;23.408;2023-11-21T05:48:22;94695.50;;;2.56;100.00
24280;BME280;12395;42.808;23.408;2023-11-21T05:50:47;94703.81;;;2.59;100.00
24280;BME280;12395;42.808;23.408;2023-11-21T05:53:15;94703.34;;;2.64;100.00
24280;BME280;12395;42.808;23.408;2023-11-21T05:55:41;94711.16;;;2.72;100.00
24280;BME280;12395;42.808;23.408;2023-11-21T05:58:06;94702.84;;;2.76;100.00
24280;BME280;12395;42.808;23.408;2023-11-21T06:00:32;94709.38;;;2.80;100.00
24280;BME280;12395;42.808;23.408;2023-11-21T06:02:58;94705.13;;;2.79;100.00
24280;BME280;12395;42.808;23.408;2023-11-21T06:05:25;94704.47;;;2.77;100.00
24280;BME280;12395;42.808;23.408;2023-11-21T06:07:55;94719.34;;;2.77;100.00
24280;BME280;12395;42.808;23.408;2023-11-21T06:10:24;94716.56;;;2.78;100.00
24280;BME280;12395;42.808;23.408;2023-11-21T06:12:50;94710.03;;;2.74;100.00
24280;BME280;12395;42.808;23.408;2023-11-21T06:15:15;94708.72;;;2.86;100.00
24280;BME280;12395;42.808;23.408;2023-11-21T06:17:42;94691.56;;;2.84;100.00
24280;BME280;12395;42.808;23.408;2023-11-21T06:20:09;94705.28;;;2.94;100.00
24280;BME280;12395;42.808;23.408;2023-11-21T06:22:37;94702.47;;;2.95;100.00
24280;BME280;12395;42.808;23.408;2023-11-21T06:25:03;94703.31;;;2.96;100.00
24280;BME280;12395;42.808;23.408;2023-11-21T06:27:49;94713.75;;;3.04;100.00
24280;BME280;12395;42.808;23.408;2023-11-21T06:30:15;94710.34;;;3.03;100.00
24280;BME280;12395;42.808;23.408;2023-11-21T06:32:42;94722.09;;;3.16;100.00
24280;BME280;12395;42.808;23.408;2023-11-21T06:35:10;94721.41;;;3.22;100.00
24280;BME280;12395;42.808;23.408;2023-11-21T06:37:36;94717.00;;;3.22;100.00
24280;BME280;12395;42.808;23.408;2023-11-21T06:40:02;94713.88;;;3.27;100.00
24280;BME280;12395;42.808;23.408;2023-11-21T06:42:29;94716.28;;;3.36;100.00
24280;BME280;12395;42.808;23.408;2023-11-21T06:44:55;94714.47;;;3.45;100.00
24280;BME280;12395;42.808;23.408;2023-11-21T06:47:24;94717.06;;;3.61;100.00
24280;BME280;12395;42.808;23.408;2023-11-21T06:49:51;94720.59;;;3.68;100.00
24280;BME280;12395;42.808;23.408;2023-11-21T06:52:17;94723.22;;;3.76;100.00
24280;BME280;12395;42.808;23.408;2023-11-21T06:54:43;94724.50;;;3.80;100.00
24280;BME280;12395;42.808;23.408;2023-11-21T06:57:08;94725.78;;;3.84;100.00
24280;BME280;12395;42.808;23.408;2023-11-21T06:59:34;94733.47;;;3.85;100.00
24280;BME280;12395;42.808;23.408;2023-11-21T07:01:59;94730.22;;;3.83;100.00
24280;BME280;12395;42.808;23.408;2023-11-21T07:04:24;94728.72;;;3.89;100.00
24280;BME280;12395;42.808;23.408;2023-11-21T07:06:53;94730.81;;;3.93;100.00
24280;BME280;12395;42.808;23.408;2023-11-21T07:09:19;94734.56;;;3.99;100.00
24280;BME280;12395;42.808;23.408;2023-11-21T07:11:50;94755.66;;;4.06;100.00
24280;BME280;12395;42.808;23.408;2023-11-21T07:14:15;94734.19;;;4.02;100.00
24280;BME280;12395;42.808;23.408;2023-11-21T07:16:42;94741.91;;;4.04;100.00
24280;BME280;12395;42.808;23.408;2023-11-21T07:19:08;94738.28;;;4.05;100.00
24280;BME280;12395;42.808;23.408;2023-11-21T07:21:34;94728.00;;;4.03;100.00
24280;BME280;12395;42.808;23.408;2023-11-21T07:24:01;94739.72;;;4.15;100.00
24280;BME280;12395;42.808;23.408;2023-11-21T07:26:28;94742.63;;;4.20;100.00
24280;BME280;12395;42.808;23.408;2023-11-21T07:28:54;94732.97;;;4.21;100.00
24280;BME280;12395;42.808;23.408;2023-11-21T07:31:20;94725.75;;;4.23;100.00
24280;BME280;12395;42.808;23.408;2023-11-21T07:33:46;94731.75;;;4.31;100.00
24280;BME280;12395;42.808;23.408;2023-11-21T07:36:15;94739.75;;;4.38;100.00
24280;BME280;12395;42.808;23.408;2023-11-21T07:38:42;94738.53;;;4.48;100.00
24280;BME280;12395;42.808;23.408;2023-11-21T07:41:07;94730.50;;;4.50;100.00
24280;BME280;12395;42.808;23.408;2023-11-21T07:43:35;94733.56;;;4.53;100.00
24280;BME280;12395;42.808;23.408;2023-11-21T07:46:04;94732.28;;;4.49;100.00
24280;BME280;12395;42.808;23.408;2023-11-21T07:48:36;94738.47;;;4.56;100.00
24280;BME280;12395;42.808;23.408;2023-11-21T07:51:02;94729.63;;;4.57;100.00
24280;BME280;12395;42.808;23.408;2023-11-21T07:53:32;94723.75;;;4.55;100.00
24280;BME280;12395;42.808;23.408;2023-11-21T07:56:07;94715.88;;;4.55;100.00
24280;BME280;12395;42.808;23.408;2023-11-21T07:58:36;94720.22;;;4.63;100.00
24280;BME280;12395;42.808;23.408;2023-11-21T08:01:02;94720.34;;;4.69;100.00
24280;BME280;12395;42.808;23.408;2023-11-21T08:03:28;94710.03;;;4.68;100.00
24280;BME280;12395;42.808;23.408;2023-11-21T08:06:00;94720.00;;;4.73;100.00
24280;BME280;12395;42.808;23.408;2023-11-21T08:08:28;94700.97;;;4.70;100.00
24280;BME280;12395;42.808;23.408;2023-11-21T08:10:53;94718.59;;;4.85;100.00
24280;BME280;12395;42.808;23.408;2023-11-21T08:13:23;94718.50;;;4.93;100.00
24280;BME280;12395;42.808;23.408;2023-11-21T08:15:48;94715.25;;;4.91;100.00
24280;BME280;12395;42.808;23.408;2023-11-21T08:18:13;94700.50;;;4.90;100.00
24280;BME280;12395;42.808;23.408;2023-11-21T08:20:40;94710.09;;;4.97;100.00
24280;BME280;12395;42.808;23.408;2023-11-21T08:23:05;94704.84;;;4.97;100.00
24280;BME280;12395;42.808;23.408;2023-11-21T08:25:31;94684.38;;;4.93;100.00
24280;BME280;12395;42.808;23.408;2023-11-21T08:27:58;94711.03;;;5.04;100.00
24280;BME280;12395;42.808;23.408;2023-11-21T08:30:24;94709.69;;;5.08;100.00
24280;BME280;12395;42.808;23.408;2023-11-21T08:32:50;94703.41;;;5.09;100.00
24280;BME280;12395;42.808;23.408;2023-11-21T08:35:17;94704.00;;;5.19;100.00
24280;BME280;12395;42.808;23.408;2023-11-21T08:37:43;94707.06;;;5.23;100.00
24280;BME280;12395;42.808;23.408;2023-11-21T08:40:08;94705.91;;;5.25;100.00
24280;BME280;12395;42.808;23.408;2023-11-21T08:42:41;94707.50;;;5.41;100.00
24280;BME280;12395;42.808;23.408;2023-11-21T08:45:08;94712.97;;;5.54;100.00
24280;BME280;12395;42.808;23.408;2023-11-21T08:47:34;94701.09;;;5.58;100.00
24280;BME280;12395;42.808;23.408;2023-11-21T08:50:02;94703.25;;;5.69;100.00
24280;BME280;12395;42.808;23.408;2023-11-21T08:52:27;94705.16;;;5.75;100.00
24280;BME280;12395;42.808;23.408;2023-11-21T08:54:53;94681.34;;;5.77;100.00
24280;BME280;12395;42.808;23.408;2023-11-21T08:57:24;94700.88;;;6.03;100.00
24280;BME280;12395;42.808;23.408;2023-11-21T08:59:50;94696.19;;;6.13;100.00
24280;BME280;12395;42.808;23.408;2023-11-21T09:02:21;94695.31;;;6.28;100.00
24280;BME280;12395;42.808;23.408;2023-11-21T09:04:47;94681.03;;;6.37;100.00
24280;BME280;12395;42.808;23.408;2023-11-21T09:07:13;94678.97;;;6.53;100.00
24280;BME280;12395;42.808;23.408;2023-11-21T09:09:38;94652.72;;;6.60;100.00
24280;BME280;12395;42.808;23.408;2023-11-21T09:12:04;94669.88;;;6.77;100.00
24280;BME280;12395;42.808;23.408;2023-11-21T09:14:29;94657.81;;;6.89;100.00
24280;BME280;12395;42.808;23.408;2023-11-21T09:16:55;94663.81;;;7.04;100.00
24280;BME280;12395;42.808;23.408;2023-11-21T09:19:21;94652.13;;;7.13;100.00
24280;BME280;12395;42.808;23.408;2023-11-21T09:21:47;94647.53;;;7.22;100.00
24280;BME280;12395;42.808;23.408;2023-11-21T09:24:12;94637.44;;;7.32;100.00
24280;BME280;12395;42.808;23.408;2023-11-21T09:26:37;94628.59;;;7.39;100.00
24280;BME280;12395;42.808;23.408;2023-11-21T09:29:03;94632.91;;;7.53;100.00
24280;BME280;12395;42.808;23.408;2023-11-21T09:31:28;94616.13;;;7.61;100.00
24280;BME280;12395;42.808;23.408;2023-11-21T09:33:54;94612.50;;;7.68;100.00
24280;BME280;12395;42.808;23.408;2023-11-21T09:36:19;94593.66;;;7.71;100.00
24280;BME280;12395;42.808;23.408;2023-11-21T09:38:49;94599.38;;;7.88;100.00
24280;BME280;12395;42.808;23.408;2023-11-21T09:41:46;94591.91;;;8.05;100.00
24280;BME280;12395;42.808;23.408;2023-11-21T09:44:18;94578.53;;;8.13;100.00
24280;BME280;12395;42.808;23.408;2023-11-21T09:46:47;94570.84;;;8.24;100.00
24280;BME280;12395;42.808;23.408;2023-11-21T09:49:14;94570.09;;;8.43;100.00
24280;BME280;12395;42.808;23.408;2023-11-21T09:51:43;94569.06;;;8.64;99.68
24280;BME280;12395;42.808;23.408;2023-11-21T09:54:10;94556.69;;;8.84;98.58
24280;BME280;12395;42.808;23.408;2023-11-21T09:56:37;94556.06;;;9.02;97.07
24280;BME280;12395;42.808;23.408;2023-11-21T09:59:03;94555.44;;;9.13;96.08
24280;BME280;12395;42.808;23.408;2023-11-21T10:01:33;94551.13;;;9.25;95.43
24280;BME280;12395;42.808;23.408;2023-11-21T10:04:01;94542.38;;;9.24;94.15
24280;BME280;12395;42.808;23.408;2023-11-21T10:06:26;94555.56;;;9.38;92.59
24280;BME280;12395;42.808;23.408;2023-11-21T10:08:53;94557.34;;;9.44;91.26
24280;BME280;12395;42.808;23.408;2023-11-21T10:11:24;94550.25;;;9.38;90.37
24280;BME280;12395;42.808;23.408;2023-11-21T10:13:52;94562.03;;;9.42;88.19
24280;BME280;12395;42.808;23.408;2023-11-21T10:16:19;94550.06;;;9.32;87.97
24280;BME280;12395;42.808;23.408;2023-11-21T10:18:52;94551.91;;;9.39;88.30
24280;BME280;12395;42.808;23.408;2023-11-21T10:21:21;94552.66;;;9.52;89.77
24280;BME280;12395;42.808;23.408;2023-11-21T10:23:47;94548.13;;;9.66;89.38
24280;BME280;12395;42.808;23.408;2023-11-21T10:26:13;94557.19;;;9.89;87.60
24280;BME280;12395;42.808;23.408;2023-11-21T10:28:57;94538.69;;;9.83;86.39
24280;BME280;12395;42.808;23.408;2023-11-21T10:31:24;94538.88;;;9.88;84.72
24280;BME280;12395;42.808;23.408;2023-11-21T10:33:50;94546.63;;;9.83;83.38
24280;BME280;12395;42.808;23.408;2023-11-21T10:36:25;94549.06;;;9.84;82.61
24280;BME280;12395;42.808;23.408;2023-11-21T10:38:52;94523.47;;;9.72;83.79
24280;BME280;12395;42.808;23.408;2023-11-21T10:41:18;94527.84;;;9.91;83.70
24280;BME280;12395;42.808;23.408;2023-11-21T10:43:44;94528.16;;;10.14;82.06
24280;BME280;12395;42.808;23.408;2023-11-21T10:46:09;94515.81;;;10.33;82.52
24280;BME280;12395;42.808;23.408;2023-11-21T10:48:35;94517.56;;;10.45;81.22
24280;BME280;12395;42.808;23.408;2023-11-21T10:51:06;94510.78;;;10.49;80.14
24280;BME280;12395;42.808;23.408;2023-11-21T10:53:32;94516.28;;;10.72;79.29
24280;BME280;12395;42.808;23.408;2023-11-21T10:56:06;94513.97;;;10.82;79.35
24280;BME280;12395;42.808;23.408;2023-11-21T10:58:43;94510.88;;;10.85;78.77
24280;BME280;12395;42.808;23.408;2023-11-21T11:01:09;94506.34;;;10.93;78.66
24280;BME280;12395;42.808;23.408;2023-11-21T11:03:37;94497.50;;;10.99;77.08
24280;BME280;12395;42.808;23.408;2023-11-21T11:06:06;94492.47;;;10.91;77.30
24280;BME280;12395;42.808;23.408;2023-11-21T11:08:37;94501.75;;;11.00;77.82
24280;BME280;12395;42.808;23.408;2023-11-21T11:11:04;94481.44;;;10.94;77.10
24280;BME280;12395;42.808;23.408;2023-11-21T11:13:30;94487.16;;;10.91;78.33
24280;BME280;12395;42.808;23.408;2023-11-21T11:15:58;94472.16;;;10.84;78.35
24280;BME280;12395;42.808;23.408;2023-11-21T11:18:25;94474.97;;;10.90;77.63
24280;BME280;12395;42.808;23.408;2023-11-21T11:20:51;94468.59;;;10.91;76.22
24280;BME280;12395;42.808;23.408;2023-11-21T11:29:34;94454.38;;;11.10;77.26
24280;BME280;12395;42.808;23.408;2023-11-21T11:34:50;94454.66;;;11.20;77.15
24280;BME280;12395;42.808;23.408;2023-11-21T11:37:20;94444.34;;;11.12;76.55
24280;BME280;12395;42.808;23.408;2023-11-21T11:39:46;94438.34;;;11.16;77.86
24280;BME280;12395;42.808;23.408;2023-11-21T11:42:16;94437.91;;;11.19;78.93
24280;BME280;12395;42.808;23.408;2023-11-21T11:47:26;94458.25;;;11.25;77.56
24280;BME280;12395;42.808;23.408;2023-11-21T11:55:00;94468.84;;;10.89;77.57
24280;BME280;12395;42.808;23.408;2023-11-21T11:57:26;94456.13;;;10.79;78.26
24280;BME280;12395;42.808;23.408;2023-11-21T12:02:55;94456.38;;;10.71;80.16
24280;BME280;12395;42.808;23.408;2023-11-21T12:05:25;94466.31;;;10.76;80.71
24280;BME280;12395;42.808;23.408;2023-11-21T12:07:57;94449.16;;;10.60;81.58
24280;BME280;12395;42.808;23.408;2023-11-21T12:10:33;94465.13;;;10.54;81.10
24280;BME280;12395;42.808;23.408;2023-11-21T12:13:05;94464.00;;;10.43;82.32
24280;BME280;12395;42.808;23.408;2023-11-21T12:15:35;94473.22;;;10.34;82.77
24280;BME280;12395;42.808;23.408;2023-11-21T12:18:02;94460.31;;;10.20;82.87
24280;BME280;12395;42.808;23.408;2023-11-21T12:20:29;94456.91;;;10.13;83.84
24280;BME280;12395;42.808;23.408;2023-11-21T12:23:00;94461.84;;;10.02;87.50
24280;BME280;12395;42.808;23.408;2023-11-21T12:25:27;94454.03;;;10.07;89.20
24280;BME280;12395;42.808;23.408;2023-11-21T12:28:00;94458.75;;;10.05;90.55
24280;BME280;12395;42.808;23.408;2023-11-21T12:30:28;94455.50;;;10.03;90.78
24280;BME280;12395;42.808;23.408;2023-11-21T12:32:56;94441.13;;;9.93;92.56
24280;BME280;12395;42.808;23.408;2023-11-21T12:35:24;94440.72;;;9.96;93.82
24280;BME280;12395;42.808;23.408;2023-11-21T12:37:51;94418.41;;;9.85;96.44
24280;BME280;12395;42.808;23.408;2023-11-21T12:40:17;94431.38;;;9.93;99.11
24280;BME280;12395;42.808;23.408;2023-11-21T12:42:45;94432.50;;;10.04;99.64
24280;BME280;12395;42.808;23.408;2023-11-21T12:45:25;94429.22;;;10.08;100.00
24280;BME280;12395;42.808;23.408;2023-11-21T12:47:53;94419.88;;;10.06;100.00
24280;BME280;12395;42.808;23.408;2023-11-21T12:50:22;94395.59;;;9.84;100.00
24280;BME280;12395;42.808;23.408;2023-11-21T12:52:50;94404.34;;;9.85;100.00
24280;BME280;12395;42.808;23.408;2023-11-21T12:55:17;94393.19;;;9.83;100.00
24280;BME280;12395;42.808;23.408;2023-11-21T12:57:48;94392.00;;;9.79;100.00
24280;BME280;12395;42.808;23.408;2023-11-21T13:00:17;94393.59;;;9.80;100.00
24280;BME280;12395;42.808;23.408;2023-11-21T13:02:56;94381.81;;;9.76;100.00
24280;BME280;12395;42.808;23.408;2023-11-21T13:05:48;94371.84;;;9.78;100.00
24280;BME280;12395;42.808;23.408;2023-11-21T13:08:16;94378.50;;;9.87;100.00